Time;durP1;ratioP1;P1;durP2;ratioP2;P2;SDS_P1;SDS_P2;PMS_P1;PMS_P2;Temp;Humidity;BMP_temperature;BMP_pressure;BME280_temperature;BME280_humidity;BME280_pressure;Samples;Min_cycle;Max_cycle;Signal;HPM_P1;HPM_P2
2022/08/17 00:01:54;;;;;;;19.38;16.33;;;21.00;99.90;;;;;;4963751;28;20027;-78
2022/08/17 00:04:20;;;;;;;20.10;16.55;;;21.10;99.90;;;;;;4966596;28;20517;-78
2022/08/17 00:06:48;;;;;;;20.65;16.55;;;21.00;99.90;;;;;;4965891;28;20114;-77
2022/08/17 00:09:13;;;;;;;20.08;16.77;;;21.00;99.90;;;;;;4958587;28;20116;-78
2022/08/17 00:11:42;;;;;;;19.77;16.92;;;21.00;99.90;;;;;;4969185;28;20458;-79
2022/08/17 00:14:17;;;;;;;19.95;16.95;;;21.00;99.90;;;;;;4971528;28;20054;-79
2022/08/17 00:16:50;;;;;;;22.25;17.73;;;21.00;99.90;;;;;;4964333;28;20042;-78
2022/08/17 00:19:21;;;;;;;19.17;16.58;;;21.00;99.90;;;;;;4965504;28;20047;-78
2022/08/17 00:21:48;;;;;;;;;;;21.00;99.90;;;;;;4958638;28;20035;-78
2022/08/17 00:24:15;;;;;;;21.25;17.40;;;20.90;99.90;;;;;;4987877;28;19930;-79
2022/08/17 00:26:41;;;;;;;19.20;17.17;;;20.90;99.90;;;;;;4964806;28;20043;-78
2022/08/17 00:29:07;;;;;;;20.98;17.30;;;20.90;99.90;;;;;;4960130;28;20047;-78
2022/08/17 00:31:34;;;;;;;20.88;18.70;;;20.90;99.90;;;;;;4963185;28;20035;-79
2022/08/17 00:34:00;;;;;;;21.27;17.80;;;20.90;99.90;;;;;;4967155;28;20078;-80
2022/08/17 00:36:26;;;;;;;22.13;18.92;;;20.90;99.90;;;;;;4976566;28;20044;-80
2022/08/17 00:38:52;;;;;;;21.77;19.20;;;20.80;99.90;;;;;;4959526;28;20039;-78
2022/08/17 00:41:22;;;;;;;23.52;20.27;;;20.90;99.90;;;;;;4967715;28;20552;-78
2022/08/17 00:43:54;;;;;;;23.88;20.23;;;20.80;99.90;;;;;;4965813;28;20490;-78
2022/08/17 00:46:25;;;;;;;24.23;21.08;;;20.80;99.90;;;;;;4971107;28;20576;-78
2022/08/17 00:48:51;;;;;;;24.27;20.85;;;20.80;99.90;;;;;;4979948;28;20039;-79
2022/08/17 00:51:29;;;;;;;26.85;21.00;;;20.80;99.90;;;;;;4971733;28;20521;-78
2022/08/17 00:54:22;;;;;;;24.58;21.58;;;20.70;99.90;;;;;;4968872;28;20430;-78
2022/08/17 00:56:55;;;;;;;24.70;21.23;;;20.80;99.90;;;;;;4957708;28;20089;-78
2022/08/17 00:59:24;;;;;;;26.38;21.15;;;20.70;99.90;;;;;;4968670;28;20390;-79
2022/08/17 01:01:51;;;;;;;25.35;21.52;;;20.70;99.90;;;;;;4969996;28;20441;-78
2022/08/17 01:04:21;;;;;;;26.48;20.95;;;20.70;99.90;;;;;;4969082;28;20058;-79
2022/08/17 01:06:48;;;;;;;26.75;22.40;;;20.60;99.90;;;;;;4969323;28;20335;-78
2022/08/17 01:09:22;;;;;;;26.17;22.73;;;20.60;99.90;;;;;;4970257;28;20439;-79
2022/08/17 01:11:51;;;;;;;26.40;21.40;;;20.50;99.90;;;;;;4986311;28;20087;-78
2022/08/17 01:14:20;;;;;;;26.17;22.17;;;20.50;99.90;;;;;;4977548;28;20038;-78
2022/08/17 01:16:49;;;;;;;26.23;23.08;;;20.60;99.90;;;;;;4962433;28;20039;-78
2022/08/17 01:19:22;;;;;;;27.65;22.45;;;20.50;99.90;;;;;;4969849;28;20039;-78
2022/08/17 01:21:58;;;;;;;26.05;22.38;;;20.50;99.90;;;;;;4994530;28;20558;-78
2022/08/17 01:24:24;;;;;;;26.50;23.27;;;20.50;99.90;;;;;;4969625;28;20039;-78
2022/08/17 01:26:50;;;;;;;29.08;23.50;;;20.40;99.90;;;;;;4979278;28;20501;-78
2022/08/17 01:29:16;;;;;;;28.25;22.77;;;20.50;99.90;;;;;;4968444;28;20046;-78
2022/08/17 01:31:48;;;;;;;28.00;23.58;;;20.50;99.90;;;;;;4963177;28;20047;-78
2022/08/17 01:34:15;;;;;;;31.00;23.55;;;20.40;99.90;;;;;;4953683;28;20046;-78
2022/08/17 01:36:44;;;;;;;26.20;23.27;;;20.40;99.90;;;;;;4953276;28;20490;-78
2022/08/17 01:39:35;;;;;;;28.92;23.10;;;20.40;99.90;;;;;;4954205;28;20050;-78
2022/08/17 01:42:26;;;;;;;36.60;25.35;;;20.40;99.90;;;;;;4958562;28;20039;-78
2022/08/17 01:44:55;;;;;;;28.23;23.92;;;20.40;99.90;;;;;;4961667;28;20062;-79
2022/08/17 01:47:22;;;;;;;27.98;24.30;;;20.40;99.90;;;;;;4958550;28;20035;-79
2022/08/17 01:49:48;;;;;;;32.20;25.30;;;20.30;99.90;;;;;;4970772;28;20047;-79
2022/08/17 01:52:14;;;;;;;29.33;24.65;;;20.30;99.90;;;;;;4962372;28;20209;-79
2022/08/17 01:54:44;;;;;;;31.00;25.52;;;20.20;99.90;;;;;;4968201;28;20043;-79
2022/08/17 01:57:10;;;;;;;30.35;25.50;;;20.30;99.90;;;;;;4963444;28;20057;-79
2022/08/17 01:59:36;;;;;;;31.65;25.13;;;20.30;99.90;;;;;;4969287;28;20277;-79
2022/08/17 02:02:04;;;;;;;29.17;25.58;;;20.30;99.90;;;;;;4960470;28;20035;-79
2022/08/17 02:04:30;;;;;;;28.50;25.27;;;20.30;99.90;;;;;;4965056;28;20043;-79
2022/08/17 02:06:57;;;;;;;31.95;27.48;;;20.30;99.90;;;;;;4969036;28;20039;-79
2022/08/17 02:09:27;;;;;;;33.28;26.08;;;20.30;99.90;;;;;;4950541;28;20038;-79
2022/08/17 02:11:54;;;;;;;33.25;27.40;;;20.30;99.90;;;;;;4969360;28;20417;-79
2022/08/17 02:14:22;;;;;;;33.42;27.85;;;20.20;99.90;;;;;;4969225;28;20066;-79
2022/08/17 02:16:48;;;;;;;33.38;26.73;;;20.30;99.90;;;;;;4962689;28;20035;-79
2022/08/17 02:19:15;;;;;;;33.75;27.10;;;20.30;99.90;;;;;;4969811;28;20065;-79
2022/08/17 02:21:43;;;;;;;33.03;26.73;;;20.30;99.90;;;;;;4969209;28;20050;-79
2022/08/17 02:24:14;;;;;;;34.72;28.70;;;20.20;99.90;;;;;;4965731;28;20107;-79
2022/08/17 02:26:41;;;;;;;31.47;27.33;;;20.30;99.90;;;;;;4967417;28;20566;-79
2022/08/17 02:29:07;;;;;;;32.72;27.17;;;20.30;99.90;;;;;;4958243;28;20050;-79
2022/08/17 02:31:34;;;;;;;32.67;27.67;;;20.30;99.90;;;;;;4957450;28;20031;-78
2022/08/17 02:34:00;;;;;;;33.88;27.42;;;20.30;99.90;;;;;;4967875;28;20061;-78
2022/08/17 02:36:25;;;;;;;33.35;27.10;;;20.30;99.90;;;;;;4964258;28;20038;-78
2022/08/17 02:38:53;;;;;;;36.08;28.45;;;20.30;99.90;;;;;;4955786;28;20047;-79
2022/08/17 02:41:19;;;;;;;31.27;27.20;;;20.30;99.90;;;;;;4967054;28;20043;-78
2022/08/17 02:43:45;;;;;;;31.30;26.92;;;20.30;99.90;;;;;;4969584;28;20576;-78
2022/08/17 02:46:11;;;;;;;31.35;26.00;;;20.30;99.90;;;;;;4953018;28;20034;-78
2022/08/17 02:48:38;;;;;;;30.70;27.13;;;20.20;99.90;;;;;;4968754;28;20042;-78
2022/08/17 02:51:04;;;;;;;32.90;27.05;;;20.20;99.90;;;;;;4948546;28;20046;-79
2022/08/17 02:53:30;;;;;;;30.55;26.38;;;20.20;99.90;;;;;;4960921;28;20050;-78
2022/08/17 02:55:56;;;;;;;35.00;26.98;;;20.20;99.90;;;;;;4957525;28;20035;-79
2022/08/17 02:58:21;;;;;;;34.08;27.58;;;20.20;99.90;;;;;;4960820;28;20066;-78
2022/08/17 03:00:47;;;;;;;32.80;27.67;;;20.20;99.90;;;;;;4966107;28;20069;-78
2022/08/17 03:03:17;;;;;;;31.20;26.38;;;20.20;99.90;;;;;;4972167;28;20035;-78
2022/08/17 03:05:46;;;;;;;33.97;26.83;;;20.20;99.90;;;;;;4978840;28;20035;-78
2022/08/17 03:08:13;;;;;;;38.72;26.25;;;20.10;99.90;;;;;;4968646;28;20050;-78
2022/08/17 03:10:40;;;;;;;31.42;26.52;;;20.10;99.90;;;;;;4967373;28;20085;-78
2022/08/17 03:13:05;;;;;;;30.67;26.23;;;20.10;99.90;;;;;;4958745;28;20055;-78
2022/08/17 03:15:33;;;;;;;31.95;26.85;;;20.10;99.90;;;;;;4966397;28;20134;-78
2022/08/17 03:17:59;;;;;;;30.42;26.55;;;20.10;99.90;;;;;;4969277;28;20054;-78
2022/08/17 03:20:26;;;;;;;33.17;26.83;;;20.10;99.90;;;;;;4965316;28;20078;-78
2022/08/17 03:22:54;;;;;;;30.55;25.85;;;20.00;99.90;;;;;;4961628;28;20042;-78
2022/08/17 03:25:26;;;;;;;30.90;26.52;;;20.10;99.90;;;;;;4951097;28;20134;-78
2022/08/17 03:27:52;;;;;;;32.72;26.90;;;20.00;99.90;;;;;;4960752;28;20035;-79
2022/08/17 03:30:21;;;;;;;30.50;25.45;;;20.00;99.90;;;;;;4968093;28;20069;-79
2022/08/17 03:32:49;;;;;;;34.05;27.17;;;20.00;99.90;;;;;;4960600;28;20051;-78
2022/08/17 03:35:18;;;;;;;29.60;25.35;;;20.00;99.90;;;;;;4963153;28;20414;-79
2022/08/17 03:37:45;;;;;;;30.52;25.77;;;20.00;99.90;;;;;;4958516;28;20104;-79
2022/08/17 03:40:12;;;;;;;30.75;26.00;;;20.00;99.90;;;;;;4952695;28;20074;-78
2022/08/17 03:42:39;;;;;;;30.55;26.45;;;20.00;99.90;;;;;;4973715;28;20038;-79
2022/08/17 03:45:15;;;;;;;31.38;25.00;;;20.00;99.90;;;;;;4955978;28;20046;-79
2022/08/17 03:58:49;;;;;;;31.48;26.17;;;20.00;99.90;;;;;;4959544;28;20170;-79
2022/08/17 04:01:16;;;;;;;33.85;26.63;;;20.00;99.90;;;;;;4955129;28;20043;-78
2022/08/17 04:03:42;;;;;;;35.50;27.42;;;20.00;99.90;;;;;;4954707;28;20057;-78
2022/08/17 04:06:08;;;;;;;32.58;26.58;;;20.00;99.90;;;;;;4968322;28;20047;-78
2022/08/17 04:08:34;;;;;;;35.78;27.42;;;20.00;99.90;;;;;;4962024;28;20716;-78
2022/08/17 04:11:00;;;;;;;31.13;26.13;;;20.00;99.90;;;;;;4960858;28;20042;-78
2022/08/17 04:13:26;;;;;;;33.72;27.40;;;20.00;99.90;;;;;;4967211;28;20451;-78
2022/08/17 04:15:52;;;;;;;31.05;26.13;;;20.00;99.90;;;;;;4966724;28;20085;-78
2022/08/17 04:18:18;;;;;;;32.92;26.75;;;20.00;99.90;;;;;;4965744;28;20095;-78
2022/08/17 04:20:45;;;;;;;35.85;27.73;;;20.00;99.90;;;;;;4966921;28;20050;-78
2022/08/17 04:23:15;;;;;;;32.20;26.80;;;20.10;99.90;;;;;;4965966;28;20157;-79
2022/08/17 04:25:47;;;;;;;33.63;26.88;;;20.00;99.90;;;;;;4942047;28;20051;-80
2022/08/17 04:28:17;;;;;;;33.35;26.35;;;20.10;99.90;;;;;;4958633;28;20043;-79
2022/08/17 04:30:43;;;;;;;30.58;26.48;;;20.00;99.90;;;;;;4964467;28;20039;-80
2022/08/17 04:33:22;;;;;;;32.90;27.33;;;20.10;99.90;;;;;;4954419;28;20411;-79
2022/08/17 04:35:55;;;;;;;31.23;25.05;;;20.00;99.90;;;;;;4962917;28;20043;-80
2022/08/17 04:38:23;;;;;;;34.20;27.98;;;19.90;99.90;;;;;;4963580;28;20043;-78
2022/08/17 04:43:37;;;;;;;30.52;26.23;;;20.00;99.90;;;;;;4957384;28;20138;-79
2022/08/17 04:46:06;;;;;;;33.22;27.15;;;20.00;99.90;;;;;;4963245;28;20039;-79
2022/08/17 04:48:34;;;;;;;32.55;26.08;;;20.00;99.90;;;;;;4960110;28;20082;-79
2022/08/17 04:51:01;;;;;;;30.42;25.83;;;20.00;99.90;;;;;;4969761;28;20042;-79
2022/08/17 04:53:27;;;;;;;31.08;26.20;;;20.10;99.90;;;;;;4957601;28;20045;-79
2022/08/17 04:55:53;;;;;;;31.67;24.95;;;20.10;99.90;;;;;;4957407;28;20492;-79
2022/08/17 04:58:19;;;;;;;32.03;25.70;;;20.10;99.90;;;;;;4957905;28;20391;-79
2022/08/17 05:00:45;;;;;;;30.73;25.63;;;20.10;99.90;;;;;;4979312;28;20042;-79
2022/08/17 05:03:11;;;;;;;28.30;24.58;;;20.10;99.90;;;;;;4967027;28;20517;-78
2022/08/17 05:05:41;;;;;;;30.13;25.15;;;20.10;99.90;;;;;;4969834;28;20510;-78
2022/08/17 05:08:08;;;;;;;30.35;24.92;;;20.10;99.90;;;;;;4980215;28;20046;-78
2022/08/17 05:10:37;;;;;;;31.10;25.13;;;20.20;99.90;;;;;;4948501;28;20053;-80
2022/08/17 05:13:17;;;;;;;31.88;25.50;;;20.10;99.90;;;;;;4970913;28;20099;-80
2022/08/17 05:15:45;;;;;;;30.42;25.15;;;20.10;99.90;;;;;;4970478;28;20463;-80
2022/08/17 05:18:11;;;;;;;31.15;25.88;;;20.10;99.90;;;;;;4966485;28;20053;-80
2022/08/17 05:20:39;;;;;;;28.35;24.27;;;20.20;99.90;;;;;;4970337;28;20077;-80
2022/08/17 05:23:08;;;;;;;30.70;24.65;;;20.20;99.90;;;;;;4959211;28;20039;-80
2022/08/17 05:25:41;;;;;;;31.67;24.45;;;20.20;99.90;;;;;;4957624;28;20092;-78
2022/08/17 05:28:09;;;;;;;31.38;24.42;;;20.20;99.90;;;;;;4965347;28;20069;-79
2022/08/17 05:30:36;;;;;;;27.90;24.23;;;20.20;99.90;;;;;;4964593;28;20070;-78
2022/08/17 05:33:05;;;;;;;28.35;24.58;;;20.20;99.90;;;;;;4955551;28;20054;-78
2022/08/17 05:35:34;;;;;;;27.40;24.27;;;20.20;99.90;;;;;;4961556;28;20158;-79
2022/08/17 05:38:00;;;;;;;31.52;24.80;;;20.20;99.90;;;;;;4958859;28;20190;-79
2022/08/17 05:40:27;;;;;;;29.58;24.20;;;20.30;99.90;;;;;;4955858;28;20039;-79
2022/08/17 05:43:18;;;;;;;29.25;24.20;;;20.30;99.90;;;;;;4959821;28;20499;-78
2022/08/17 05:45:49;;;;;;;27.13;23.00;;;20.40;99.90;;;;;;4956595;28;20043;-79
2022/08/17 05:48:15;;;;;;;32.42;25.42;;;20.40;99.90;;;;;;4973106;28;20445;-80
2022/08/17 05:50:48;;;;;;;25.88;22.90;;;20.40;99.90;;;;;;4967490;28;20047;-80
2022/08/17 05:53:29;;;;;;;26.58;23.08;;;20.40;99.90;;;;;;4970582;28;20042;-79
2022/08/17 05:56:09;;;;;;;28.48;24.02;;;20.50;99.90;;;;;;4965069;28;20498;-80
2022/08/17 05:58:57;;;;;;;30.83;24.40;;;20.50;99.90;;;;;;4965779;28;20055;-79
2022/08/17 06:01:38;;;;;;;29.20;22.23;;;20.50;99.90;;;;;;4956549;28;20042;-79
2022/08/17 06:04:22;;;;;;;27.42;22.77;;;20.60;99.90;;;;;;4965486;28;20108;-79
2022/08/17 06:07:04;;;;;;;29.67;23.73;;;20.60;99.90;;;;;;4962860;28;20042;-79
2022/08/17 06:09:47;;;;;;;27.60;23.20;;;20.60;99.90;;;;;;4945006;28;20114;-79
2022/08/17 06:12:56;;;;;;;26.67;22.45;;;20.70;99.90;;;;;;4965110;28;20115;-79
2022/08/17 06:15:49;;;;;;;27.48;21.63;;;20.70;99.90;;;;;;4958980;28;21035;-79
2022/08/17 06:18:17;;;;;;;25.85;21.85;;;20.70;99.90;;;;;;4965494;28;20050;-79
2022/08/17 06:21:05;;;;;;;24.83;21.80;;;20.70;99.90;;;;;;4958130;28;20053;-79
2022/08/17 06:23:39;;;;;;;24.75;21.58;;;20.80;99.90;;;;;;4967838;28;20050;-79
2022/08/17 06:26:21;;;;;;;25.17;20.77;;;20.90;99.90;;;;;;4966177;28;20054;-79
2022/08/17 06:28:54;;;;;;;25.08;21.23;;;20.90;99.90;;;;;;4965289;28;20565;-78
2022/08/17 06:31:26;;;;;;;23.27;20.75;;;21.00;99.90;;;;;;4962378;28;20035;-79
2022/08/17 06:33:53;;;;;;;27.55;20.83;;;21.00;99.90;;;;;;4956967;28;20395;-79
2022/08/17 06:36:43;;;;;;;23.55;21.05;;;21.00;99.90;;;;;;4993362;28;20054;-79
2022/08/17 06:39:34;;;;;;;22.48;19.88;;;21.10;99.90;;;;;;4968639;28;20437;-79
2022/08/17 06:42:28;;;;;;;25.10;21.70;;;21.10;99.90;;;;;;4958438;28;20066;-78
2022/08/17 06:45:13;;;;;;;25.60;21.17;;;21.20;99.90;;;;;;4953385;28;20116;-79
2022/08/17 06:47:47;;;;;;;24.83;20.38;;;21.20;99.90;;;;;;4968512;28;20039;-79
2022/08/17 06:50:38;;;;;;;24.08;20.77;;;21.30;99.90;;;;;;4969572;28;20487;-78
2022/08/17 06:53:24;;;;;;;22.33;19.30;;;21.40;99.90;;;;;;4967814;28;20045;-79
2022/08/17 06:56:03;;;;;;;23.55;19.52;;;21.40;99.90;;;;;;4960145;28;20384;-80
2022/08/17 06:58:30;;;;;;;22.63;19.52;;;21.40;99.90;;;;;;4964330;28;20039;-79
2022/08/17 07:01:00;;;;;;;23.13;19.67;;;21.40;99.90;;;;;;4956118;28;20039;-79
2022/08/17 07:03:44;;;;;;;23.95;20.00;;;21.40;99.90;;;;;;4966595;28;20453;-79
2022/08/17 07:06:20;;;;;;;22.60;20.02;;;21.40;99.90;;;;;;4961057;28;20035;-79
2022/08/17 07:09:01;;;;;;;22.73;19.48;;;21.40;99.90;;;;;;4964958;28;20087;-79
2022/08/17 07:11:47;;;;;;;20.35;18.15;;;21.40;99.90;;;;;;4962470;28;20050;-78
2022/08/17 07:14:32;;;;;;;21.27;18.92;;;21.40;99.90;;;;;;4964828;28;20053;-79
2022/08/17 07:17:04;;;;;;;21.13;17.80;;;21.40;99.90;;;;;;4950123;28;20448;-79
2022/08/17 07:19:32;;;;;;;22.65;19.52;;;21.50;99.90;;;;;;4951583;28;20384;-79
2022/08/17 07:22:06;;;;;;;22.52;19.63;;;21.50;99.90;;;;;;4950397;28;20055;-78
2022/08/17 07:25:08;;;;;;;22.80;19.45;;;21.50;99.90;;;;;;4951150;28;20121;-78
2022/08/17 07:27:44;;;;;;;21.38;18.88;;;21.50;99.90;;;;;;4962426;28;20047;-80
2022/08/17 07:30:33;;;;;;;22.88;18.92;;;21.50;99.90;;;;;;4963388;28;20168;-79
2022/08/17 07:33:12;;;;;;;22.38;18.83;;;21.40;99.90;;;;;;4967943;28;20039;-79
2022/08/17 07:35:42;;;;;;;22.55;20.02;;;21.40;99.90;;;;;;4957287;28;20043;-79
2022/08/17 07:38:09;;;;;;;22.98;20.55;;;21.40;99.90;;;;;;4954608;28;20043;-79
2022/08/17 07:40:37;;;;;;;23.73;19.80;;;21.30;99.90;;;;;;4950749;28;20096;-79
2022/08/17 07:43:21;;;;;;;25.58;21.42;;;21.30;99.90;;;;;;4953102;28;20486;-80
2022/08/17 07:48:48;;;;;;;22.85;19.35;;;21.20;99.90;;;;;;4952376;28;20402;-79
2022/08/17 07:51:25;;;;;;;24.17;20.48;;;21.20;99.90;;;;;;4950638;28;20046;-79
2022/08/17 07:53:54;;;;;;;23.02;19.15;;;21.20;99.90;;;;;;4962922;28;20043;-80
2022/08/17 07:56:52;;;;;;;22.45;19.27;;;21.20;99.90;;;;;;4955572;28;20124;-81
2022/08/17 07:59:19;;;;;;;24.75;20.63;;;21.20;99.90;;;;;;4956060;28;20552;-80
2022/08/17 08:01:52;;;;;;;22.95;20.45;;;21.20;99.90;;;;;;4952768;28;20050;-80
2022/08/17 08:04:45;;;;;;;24.83;20.05;;;21.20;99.90;;;;;;4954370;28;20054;-80
2022/08/17 08:07:25;;;;;;;22.83;20.33;;;21.20;99.90;;;;;;4954515;28;20039;-81
2022/08/17 08:10:06;;;;;;;24.10;19.58;;;21.30;99.90;;;;;;4948199;28;20073;-80
2022/08/17 08:12:36;;;;;;;22.25;19.42;;;21.30;99.90;;;;;;4964166;28;20125;-81
2022/08/17 08:15:16;;;;;;;24.80;20.30;;;21.40;99.90;;;;;;4958278;28;20043;-80
2022/08/17 08:18:03;;;;;;;24.70;20.90;;;21.50;99.90;;;;;;4953694;28;20035;-80
2022/08/17 08:20:48;;;;;;;22.98;19.75;;;21.60;99.90;;;;;;4952198;28;20043;-79
2022/08/17 08:23:36;;;;;;;24.58;21.20;;;21.60;99.90;;;;;;4960089;28;20135;-80
2022/08/17 08:26:25;;;;;;;23.02;19.20;;;21.70;99.90;;;;;;4967304;28;20609;-80
2022/08/17 08:29:03;;;;;;;24.15;19.67;;;21.70;99.90;;;;;;4962366;28;20043;-81
2022/08/17 08:31:47;;;;;;;25.75;20.80;;;21.70;99.90;;;;;;4958459;28;20042;-81
2022/08/17 08:34:22;;;;;;;25.02;21.42;;;21.30;99.90;;;;;;4973728;28;20042;-80
2022/08/17 08:37:00;;;;;;;25.65;21.50;;;21.70;99.90;;;;;;4968236;28;20499;-80
2022/08/17 08:39:40;;;;;;;29.08;23.38;;;21.70;99.90;;;;;;4969773;28;20374;-80
2022/08/17 08:42:10;;;;;;;23.13;20.20;;;21.70;99.90;;;;;;4965755;28;20053;-80
2022/08/17 08:45:05;;;;;;;24.20;21.40;;;21.70;99.90;;;;;;4973718;28;20031;-80
2022/08/17 08:47:39;;;;;;;24.10;20.77;;;21.80;99.90;;;;;;4954030;28;20039;-80
2022/08/17 08:50:40;;;;;;;23.88;20.73;;;21.90;99.90;;;;;;4971694;28;20436;-79
2022/08/17 08:53:20;;;;;;;25.02;21.23;;;22.10;99.90;;;;;;4968212;28;20556;-80
2022/08/17 08:56:30;;;;;;;26.58;21.80;;;22.30;99.90;;;;;;4977479;28;20503;-82
2022/08/17 08:59:13;;;;;;;25.83;21.40;;;22.40;99.90;;;;;;4965130;28;20055;-82
2022/08/17 09:02:09;;;;;;;25.10;22.33;;;22.50;99.90;;;;;;4967409;28;20074;-82
2022/08/17 09:04:54;;;;;;;22.88;20.10;;;22.60;99.90;;;;;;4972128;28;20141;-82
2022/08/17 09:07:32;;;;;;;26.08;21.35;;;22.70;99.90;;;;;;4960878;28;20047;-81
2022/08/17 09:10:18;;;;;;;23.00;20.40;;;22.80;99.90;;;;;;4951591;28;20390;-81
2022/08/17 09:12:52;;;;;;;23.80;20.92;;;22.80;99.90;;;;;;4967664;28;20055;-81
2022/08/17 09:15:37;;;;;;;25.77;21.08;;;22.80;99.90;;;;;;4947890;28;20039;-81
2022/08/17 09:18:15;;;;;;;23.45;20.38;;;22.80;99.90;;;;;;4951843;28;20039;-81
2022/08/17 09:20:48;;;;;;;24.23;20.17;;;22.70;99.90;;;;;;4968506;28;20096;-80
2022/08/17 09:23:29;;;;;;;22.17;19.27;;;22.70;99.90;;;;;;4956965;28;20078;-80
2022/08/17 09:26:22;;;;;;;23.05;19.48;;;22.70;99.90;;;;;;4968345;28;20077;-80
2022/08/17 09:28:59;;;;;;;26.38;19.75;;;22.70;99.90;;;;;;4973575;28;20051;-80
2022/08/17 09:31:34;;;;;;;22.52;19.27;;;22.70;99.90;;;;;;4966165;28;20039;-79
2022/08/17 09:34:14;;;;;;;22.92;20.20;;;22.70;99.90;;;;;;4965527;28;20563;-79
2022/08/17 09:36:49;;;;;;;23.48;19.77;;;22.80;99.90;;;;;;4966667;28;20050;-80
2022/08/17 09:39:40;;;;;;;21.85;19.35;;;22.80;99.90;;;;;;4960362;28;20062;-79
2022/08/17 09:42:14;;;;;;;22.95;19.20;;;22.80;99.90;;;;;;4964167;28;20557;-79
2022/08/17 09:44:48;;;;;;;21.35;18.98;;;22.90;99.90;;;;;;4967074;28;20054;-79
2022/08/17 09:47:30;;;;;;;22.05;18.75;;;23.10;99.90;;;;;;4964734;28;20074;-79
2022/08/17 09:50:04;;;;;;;24.30;19.52;;;23.10;99.90;;;;;;4985592;28;20072;-79
2022/08/17 09:52:30;;;;;;;24.00;19.95;;;23.20;99.90;;;;;;4975171;28;20087;-79
2022/08/17 09:54:59;;;;;;;22.05;19.15;;;23.30;99.90;;;;;;4965687;28;20046;-79
2022/08/17 09:57:49;;;;;;;23.40;18.60;;;23.50;99.90;;;;;;4959989;28;20077;-79
2022/08/17 10:00:22;;;;;;;24.35;19.40;;;23.50;99.90;;;;;;4948761;28;20130;-79
2022/08/17 10:03:18;;;;;;;23.70;19.45;;;23.60;99.90;;;;;;4956067;28;20380;-79
2022/08/17 10:05:58;;;;;;;20.88;18.27;;;23.60;99.90;;;;;;4971770;28;20043;-79
2022/08/17 10:08:28;;;;;;;22.23;17.50;;;23.70;99.90;;;;;;4970920;28;20092;-80
2022/08/17 10:11:18;;;;;;;19.40;17.30;;;23.80;99.90;;;;;;4965957;28;20043;-79
2022/08/17 10:13:53;;;;;;;18.95;16.88;;;24.10;99.90;;;;;;4970130;28;20544;-79
2022/08/17 10:16:37;;;;;;;18.95;16.27;;;24.40;99.90;;;;;;4966317;28;20051;-79
2022/08/17 10:19:21;;;;;;;21.17;17.35;;;24.70;99.90;;;;;;4958524;28;20489;-80
2022/08/17 10:27:50;;;;;;;21.73;16.88;;;25.40;99.90;;;;;;4973711;28;20467;-79
2022/08/17 10:30:20;;;;;;;18.58;16.42;;;25.60;99.90;;;;;;4969634;28;20067;-79
2022/08/17 10:32:55;;;;;;;21.38;16.90;;;25.80;99.90;;;;;;4960048;28;20117;-79
2022/08/17 10:35:24;;;;;;;18.90;15.45;;;25.90;99.90;;;;;;4969419;28;20070;-80
2022/08/17 10:38:24;;;;;;;18.35;15.27;;;26.10;99.90;;;;;;4974035;28;20042;-80
2022/08/17 10:41:19;;;;;;;18.17;16.00;;;26.30;99.90;;;;;;4975877;28;20091;-80
2022/08/17 10:44:03;;;;;;;18.17;16.25;;;26.50;99.90;;;;;;4962816;28;20391;-80
2022/08/17 10:46:38;;;;;;;18.25;15.85;;;26.60;99.90;;;;;;4956582;28;20042;-80
2022/08/17 10:49:16;;;;;;;16.73;14.95;;;26.70;99.90;;;;;;4964423;28;20429;-80
2022/08/17 10:52:05;;;;;;;18.42;16.30;;;26.70;99.40;;;;;;4954819;28;20479;-80
2022/08/17 10:55:04;;;;;;;18.92;17.00;;;26.70;99.80;;;;;;4974874;28;20038;-80
2022/08/17 10:57:33;;;;;;;19.58;17.48;;;26.50;98.50;;;;;;4970405;28;20047;-80
2022/08/17 11:00:09;;;;;;;17.65;15.57;;;26.40;99.40;;;;;;4963582;28;20046;-80
2022/08/17 11:02:53;;;;;;;18.55;16.58;;;26.30;99.30;;;;;;4960421;28;20059;-80
2022/08/17 11:05:45;;;;;;;18.42;15.73;;;26.30;98.90;;;;;;4943221;29;20062;-79
2022/08/17 11:08:35;;;;;;;;;;;26.20;99.00;;;;;;4975040;28;20075;-80
2022/08/17 11:11:16;;;;;;;17.08;14.52;;;26.00;98.20;;;;;;4969905;28;20001;-80
2022/08/17 11:13:45;;;;;;;19.05;15.15;;;25.90;98.90;;;;;;4968911;28;20117;-79
2022/08/17 11:16:31;;;;;;;20.90;14.60;;;25.80;99.00;;;;;;4971190;28;20047;-80
2022/08/17 11:19:28;;;;;;;16.25;13.80;;;25.60;98.70;;;;;;4957203;28;20097;-79
2022/08/17 11:22:12;;;;;;;14.10;12.63;;;25.60;98.50;;;;;;4967276;28;20039;-80
2022/08/17 11:24:46;;;;;;;14.57;12.45;;;25.50;98.70;;;;;;4969638;28;20054;-80
2022/08/17 11:27:34;;;;;;;12.93;11.35;;;25.50;98.70;;;;;;4985588;28;20042;-79
2022/08/17 11:30:02;;;;;;;15.20;11.93;;;25.40;98.30;;;;;;4960405;28;20035;-80
2022/08/17 11:32:40;;;;;;;13.20;11.52;;;25.30;98.60;;;;;;4965996;28;20081;-79
2022/08/17 11:35:20;;;;;;;15.40;11.73;;;25.30;98.50;;;;;;4964101;28;20050;-79
2022/08/17 11:37:51;;;;;;;14.82;12.80;;;25.20;98.60;;;;;;4968969;28;20089;-79
2022/08/17 11:40:23;;;;;;;;;;;25.20;98.70;;;;;;4962976;28;20050;-79
2022/08/17 11:42:48;;;;;;;13.68;12.15;;;25.10;98.70;;;;;;4968057;28;19922;-79
2022/08/17 11:45:37;;;;;;;15.20;13.40;;;25.10;98.80;;;;;;4952566;28;20057;-80
2022/08/17 11:51:32;;;;;;;15.05;13.23;;;25.20;98.90;;;;;;4960641;28;20047;-80
2022/08/17 11:54:31;;;;;;;15.82;12.50;;;25.30;98.90;;;;;;4946789;28;20077;-80
2022/08/17 11:57:25;;;;;;;14.05;12.55;;;25.30;98.70;;;;;;4955850;28;20566;-80
2022/08/17 11:59:55;;;;;;;15.90;12.90;;;25.20;98.30;;;;;;4966758;28;20050;-79
2022/08/17 12:02:29;;;;;;;16.67;12.80;;;25.10;98.40;;;;;;4969113;28;20525;-79
2022/08/17 12:05:13;;;;;;;13.68;12.27;;;25.10;98.20;;;;;;4969183;28;20066;-79
2022/08/17 12:07:44;;;;;;;15.38;12.82;;;25.10;98.30;;;;;;4969324;28;20051;-79
2022/08/17 12:10:14;;;;;;;14.70;12.07;;;25.00;98.20;;;;;;4952728;28;20031;-79
2022/08/17 12:12:42;;;;;;;16.70;11.90;;;25.00;98.30;;;;;;4974067;28;20086;-79
2022/08/17 12:15:16;;;;;;;15.18;11.93;;;24.90;98.30;;;;;;4969213;28;20079;-80
2022/08/17 12:17:50;;;;;;;14.00;11.93;;;25.00;98.30;;;;;;4966541;28;20082;-79
2022/08/17 12:20:22;;;;;;;14.60;11.68;;;25.00;98.20;;;;;;4959538;28;20039;-80
2022/08/17 12:22:56;;;;;;;;;;;25.00;98.10;;;;;;4975203;28;20123;-79
2022/08/17 12:25:37;;;;;;;14.65;13.00;;;25.00;98.10;;;;;;5008996;28;19916;-79
2022/08/17 12:28:06;;;;;;;14.00;12.30;;;25.10;98.20;;;;;;4963222;28;20035;-79
2022/08/17 12:30:31;;;;;;;16.23;12.23;;;25.10;98.30;;;;;;4960572;28;20503;-79
2022/08/17 12:32:57;;;;;;;14.25;12.27;;;25.10;98.30;;;;;;4982693;28;20089;-79
2022/08/17 12:35:28;;;;;;;17.42;12.48;;;25.20;98.40;;;;;;4975017;28;20039;-79
2022/08/17 12:37:58;;;;;;;16.75;14.95;;;25.30;98.40;;;;;;4947570;28;20039;-79
2022/08/17 12:40:27;;;;;;;15.43;13.68;;;25.30;98.50;;;;;;4966756;28;20079;-80
2022/08/17 12:43:03;;;;;;;17.95;14.55;;;25.40;98.60;;;;;;4963091;28;20077;-80
2022/08/17 12:45:35;;;;;;;16.05;14.35;;;25.40;98.30;;;;;;4971487;28;20035;-80
2022/08/17 12:48:20;;;;;;;16.27;14.57;;;25.30;98.10;;;;;;4966376;28;20030;-81
2022/08/17 12:50:48;;;;;;;15.55;13.70;;;25.30;98.00;;;;;;4965599;28;20097;-81
2022/08/17 12:53:23;;;;;;;14.27;12.75;;;25.30;98.00;;;;;;4965095;28;20054;-81
2022/08/17 12:55:50;;;;;;;15.40;12.80;;;25.30;97.90;;;;;;4984555;28;20050;-80
2022/08/17 12:58:27;;;;;;;14.73;13.05;;;25.30;98.10;;;;;;4967027;28;20081;-79
2022/08/17 13:01:07;;;;;;;17.13;12.10;;;25.30;98.00;;;;;;4969838;28;20130;-79
2022/08/17 13:03:44;;;;;;;16.58;12.65;;;25.20;98.00;;;;;;4958251;28;20093;-79
2022/08/17 13:06:13;;;;;;;14.30;12.82;;;25.20;98.00;;;;;;4971540;28;20035;-79
2022/08/17 13:08:46;;;;;;;17.30;14.45;;;25.10;98.00;;;;;;4966579;28;20121;-79
2022/08/17 13:11:17;;;;;;;15.73;12.90;;;25.00;97.90;;;;;;4962523;28;20038;-78
2022/08/17 13:13:54;;;;;;;16.08;14.05;;;24.90;97.90;;;;;;4958812;28;20039;-78
2022/08/17 13:16:30;;;;;;;15.77;12.25;;;24.80;97.90;;;;;;4967334;28;20062;-80
2022/08/17 13:19:07;;;;;;;15.02;13.43;;;24.80;97.90;;;;;;4957756;28;20168;-79
2022/08/17 13:21:35;;;;;;;15.05;12.02;;;24.70;98.00;;;;;;4944003;28;20043;-79
2022/08/17 13:24:08;;;;;;;12.55;11.25;;;24.70;98.10;;;;;;4951810;28;20039;-79
2022/08/17 13:27:00;;;;;;;18.08;13.13;;;24.60;98.20;;;;;;4965878;28;20043;-79
2022/08/17 13:29:33;;;;;;;;;;;24.50;98.20;;;;;;4957815;28;20070;-79
2022/08/17 13:32:05;;;;;;;14.80;13.18;;;24.40;98.30;;;;;;4963317;28;20008;-79